createdAt,value
2018-09-17T00:02:12.946Z,19.80
2018-09-17T00:04:41.381Z,19.77
2018-09-17T00:07:09.884Z,19.82
2018-09-17T00:09:38.298Z,19.82
2018-09-17T00:12:06.919Z,19.87
2018-09-17T00:14:35.363Z,19.91
2018-09-17T00:17:04.196Z,20.02
2018-09-17T00:19:32.690Z,20.07
2018-09-17T00:22:01.117Z,20.11
2018-09-17T00:24:29.606Z,20.15
2018-09-17T00:26:58.056Z,20.10
2018-09-17T00:29:26.514Z,20.11
2018-09-17T00:31:54.961Z,20.15
2018-09-17T00:34:23.442Z,20.11
2018-09-17T00:36:51.953Z,20.10
2018-09-17T00:39:20.417Z,20.07
2018-09-17T00:41:48.848Z,20.07
2018-09-17T00:44:17.377Z,20.03
2018-09-17T00:46:45.835Z,19.95
2018-09-17T00:49:20.749Z,19.86
2018-09-17T00:51:49.158Z,19.77
2018-09-17T00:54:17.797Z,19.73
2018-09-17T00:56:46.248Z,19.72
2018-09-17T00:59:14.742Z,19.82
2018-09-17T01:01:43.182Z,19.85
2018-09-17T01:04:11.890Z,19.85
2018-09-17T01:06:40.376Z,19.77
2018-09-17T01:09:12.818Z,19.68
2018-09-17T01:11:41.272Z,19.63
2018-09-17T01:14:09.701Z,19.63
2018-09-17T01:16:38.222Z,19.73
2018-09-17T01:19:06.745Z,19.77
2018-09-17T01:21:35.256Z,19.81
2018-09-17T01:24:03.702Z,19.79
2018-09-17T01:26:32.157Z,19.88
2018-09-17T01:29:00.603Z,19.86
2018-09-17T01:31:29.103Z,19.87
2018-09-17T01:33:57.556Z,19.87
2018-09-17T01:36:26.022Z,19.87
2018-09-17T01:38:54.474Z,19.86
2018-09-17T01:41:22.978Z,19.91
2018-09-17T01:43:51.403Z,19.87
2018-09-17T01:46:19.956Z,19.87
2018-09-17T01:48:48.365Z,19.83
2018-09-17T01:51:16.842Z,19.90
2018-09-17T01:53:45.322Z,19.92
2018-09-17T01:56:13.826Z,19.89
2018-09-17T01:58:42.303Z,19.86
2018-09-17T02:01:10.779Z,19.80
2018-09-17T02:03:39.240Z,19.79
2018-09-17T02:06:07.722Z,19.84
2018-09-17T02:08:36.180Z,19.85
2018-09-17T02:11:04.686Z,19.80
2018-09-17T02:13:33.202Z,19.75
2018-09-17T02:16:02.138Z,19.79
2018-09-17T02:18:30.633Z,19.78
2018-09-17T02:20:59.061Z,19.77
2018-09-17T02:23:27.515Z,19.71
2018-09-17T02:25:55.974Z,19.77
2018-09-17T02:28:24.437Z,19.73
2018-09-17T02:30:52.866Z,19.71
2018-09-17T02:33:21.322Z,19.74
2018-09-17T02:35:49.727Z,19.76
2018-09-17T02:38:18.193Z,19.65
2018-09-17T02:40:46.689Z,19.54
2018-09-17T02:43:15.213Z,19.55
2018-09-17T02:45:43.641Z,19.56
2018-09-17T02:48:12.117Z,19.60
2018-09-17T02:50:40.576Z,19.58
2018-09-17T02:53:09.019Z,19.58
2018-09-17T02:55:37.575Z,19.53
2018-09-17T02:58:06.019Z,19.51
2018-09-17T03:00:34.483Z,19.47
2018-09-17T03:03:04.023Z,19.46
2018-09-17T03:05:32.537Z,19.40
2018-09-17T03:08:00.979Z,19.34
2018-09-17T03:10:29.449Z,19.28
2018-09-17T03:12:57.870Z,19.28
2018-09-17T03:15:39.554Z,19.31
2018-09-17T03:18:08.038Z,19.39
2018-09-17T03:20:36.635Z,19.43
2018-09-17T03:23:05.084Z,19.40
2018-09-17T03:25:33.531Z,19.32
2018-09-17T03:28:02.004Z,19.25
2018-09-17T03:30:30.474Z,19.21
2018-09-17T03:32:58.990Z,19.10
2018-09-17T03:35:27.474Z,19.06
2018-09-17T03:37:56.908Z,19.09
2018-09-17T03:40:25.481Z,19.12
2018-09-17T03:42:53.946Z,19.08
2018-09-17T03:45:22.413Z,19.09
2018-09-17T03:47:50.922Z,18.97
2018-09-17T03:50:19.342Z,18.87
2018-09-17T03:52:47.822Z,18.85
2018-09-17T03:55:16.284Z,18.77
2018-09-17T03:57:44.744Z,18.74
2018-09-17T04:00:13.177Z,18.68
2018-09-17T04:02:41.622Z,18.71
2018-09-17T04:05:10.058Z,18.74
2018-09-17T04:07:38.518Z,18.87
2018-09-17T04:10:06.964Z,18.91
2018-09-17T04:12:35.828Z,18.94
2018-09-17T04:15:04.334Z,18.85
2018-09-17T04:17:33.063Z,18.77
2018-09-17T04:20:02.005Z,18.83
2018-09-17T04:22:30.482Z,18.87
2018-09-17T04:24:58.931Z,18.87
2018-09-17T04:27:27.400Z,18.98
2018-09-17T04:29:55.789Z,19.01
2018-09-17T04:32:24.221Z,19.02
2018-09-17T04:34:52.656Z,19.00
2018-09-17T04:37:21.136Z,18.92
2018-09-17T04:39:49.687Z,18.83
2018-09-17T04:42:18.042Z,18.64
2018-09-17T04:44:46.498Z,18.55
2018-09-17T04:47:14.902Z,18.60
2018-09-17T04:49:43.395Z,18.57
2018-09-17T04:52:11.854Z,18.55
2018-09-17T04:54:40.302Z,18.55
2018-09-17T04:57:08.752Z,18.52
2018-09-17T04:59:37.204Z,18.48
2018-09-17T05:02:05.606Z,18.56
2018-09-17T05:04:34.061Z,18.56
2018-09-17T05:07:03.001Z,18.49
2018-09-17T05:09:31.437Z,18.49
2018-09-17T05:11:59.817Z,18.50
2018-09-17T05:14:28.278Z,18.48
2018-09-17T05:16:56.721Z,18.51
2018-09-17T05:19:25.242Z,18.60
2018-09-17T05:21:53.658Z,18.62
2018-09-17T05:24:22.108Z,18.67
2018-09-17T05:26:50.532Z,18.79
2018-09-17T05:29:18.965Z,18.91
2018-09-17T05:31:47.375Z,19.02
2018-09-17T05:34:15.837Z,19.04
2018-09-17T05:36:44.229Z,19.09
2018-09-17T05:39:12.705Z,19.21
2018-09-17T05:41:41.102Z,19.17
2018-09-17T05:44:09.501Z,19.17
2018-09-17T05:46:39.715Z,19.30
2018-09-17T05:49:08.180Z,19.24
2018-09-17T05:51:37.017Z,19.31
2018-09-17T05:54:05.544Z,19.31
2018-09-17T05:56:34.026Z,19.40
2018-09-17T05:59:02.467Z,19.45
2018-09-17T06:01:30.905Z,19.43
2018-09-17T06:03:59.318Z,19.33
2018-09-17T06:06:27.802Z,19.33
2018-09-17T06:08:56.237Z,19.33
2018-09-17T06:11:24.831Z,19.30
2018-09-17T06:13:53.241Z,19.33
2018-09-17T06:16:21.678Z,19.36
2018-09-17T06:18:50.126Z,19.35
2018-09-17T06:21:18.608Z,19.38
2018-09-17T06:23:47.045Z,19.55
2018-09-17T06:26:15.569Z,19.65
2018-09-17T06:28:44.712Z,19.73
2018-09-17T06:31:13.122Z,19.74
2018-09-17T06:33:41.588Z,19.85
2018-09-17T06:36:10.041Z,19.87
2018-09-17T06:38:38.849Z,19.92
2018-09-17T06:41:07.338Z,19.96
2018-09-17T06:43:35.789Z,20.03
2018-09-17T06:46:04.211Z,20.08
2018-09-17T06:48:32.666Z,20.22
2018-09-17T06:51:01.089Z,20.33
2018-09-17T06:53:29.703Z,20.40
2018-09-17T06:55:58.190Z,20.47
2018-09-17T06:58:26.685Z,20.55
2018-09-17T07:00:55.727Z,20.63
2018-09-17T07:03:24.369Z,20.78
2018-09-17T07:05:52.830Z,20.91
2018-09-17T07:08:21.380Z,20.99
2018-09-17T07:10:49.785Z,21.03
2018-09-17T07:13:18.239Z,21.14
2018-09-17T07:15:46.653Z,21.21
2018-09-17T07:18:15.177Z,21.30
2018-09-17T07:20:43.649Z,21.36
2018-09-17T07:23:12.246Z,21.45
2018-09-17T07:25:40.698Z,21.50
2018-09-17T07:28:09.139Z,21.56
2018-09-17T07:30:37.693Z,21.61
2018-09-17T07:33:06.125Z,21.61
2018-09-17T07:35:34.635Z,21.66
2018-09-17T07:38:04.021Z,21.71
2018-09-17T07:40:32.471Z,21.83
2018-09-17T07:43:00.905Z,21.88
2018-09-17T07:45:29.344Z,22.01
2018-09-17T07:47:57.757Z,22.15
2018-09-17T07:50:26.208Z,22.25
2018-09-17T07:52:54.648Z,22.28
2018-09-17T07:55:23.187Z,22.30
2018-09-17T07:57:51.594Z,22.35
2018-09-17T08:00:20.056Z,22.33
2018-09-17T08:02:48.469Z,22.35
2018-09-17T08:05:17.103Z,22.40
2018-09-17T08:07:45.493Z,22.45
2018-09-17T08:10:18.259Z,22.51
2018-09-17T08:12:46.667Z,22.59
2018-09-17T08:15:15.512Z,22.72
2018-09-17T08:17:44.384Z,22.83
2018-09-17T08:20:13.109Z,22.95
2018-09-17T08:22:41.685Z,23.08
2018-09-17T08:25:10.441Z,23.22
2018-09-17T08:27:39.116Z,23.28
2018-09-17T08:30:08.233Z,23.41
2018-09-17T08:32:36.757Z,23.49
2018-09-17T08:35:05.800Z,23.50
2018-09-17T08:37:34.245Z,23.54
2018-09-17T08:40:02.798Z,23.61
2018-09-17T08:42:31.213Z,23.68
2018-09-17T08:44:59.604Z,23.70
2018-09-17T08:47:28.013Z,23.77
2018-09-17T08:49:56.514Z,23.82
2018-09-17T08:52:24.951Z,23.83
2018-09-17T08:54:58.762Z,23.81
2018-09-17T08:57:36.272Z,23.87
2018-09-17T09:00:11.990Z,23.88
2018-09-17T09:02:45.483Z,23.85
2018-09-17T09:05:19.241Z,23.91
2018-09-17T09:07:52.137Z,23.97
2018-09-17T09:10:26.385Z,23.94
2018-09-17T09:14:00.387Z,23.90
2018-09-17T09:16:28.762Z,23.98
2018-09-17T09:18:57.217Z,24.02
2018-09-17T09:21:25.610Z,24.13
2018-09-17T09:23:54.025Z,24.29
2018-09-17T09:26:22.412Z,24.36
2018-09-17T09:28:50.829Z,24.32
2018-09-17T09:31:19.205Z,24.38
2018-09-17T09:33:47.621Z,24.47
2018-09-17T09:36:15.990Z,24.56
2018-09-17T09:38:44.434Z,24.55
2018-09-17T09:41:12.845Z,24.61
2018-09-17T09:43:41.271Z,24.63
2018-09-17T09:46:09.685Z,24.69
2018-09-17T09:48:38.073Z,24.80
2018-09-17T09:51:06.497Z,24.82
2018-09-17T09:53:34.898Z,24.83
2018-09-17T09:56:03.670Z,24.76
2018-09-17T09:58:32.054Z,24.67
2018-09-17T10:01:05.736Z,24.63
2018-09-17T10:03:39.202Z,24.67
2018-09-17T10:06:07.618Z,24.66
2018-09-17T10:08:43.013Z,24.66
2018-09-17T10:11:16.707Z,24.68
2018-09-17T10:13:50.289Z,24.67
2018-09-17T10:16:20.018Z,24.68
2018-09-17T10:18:53.613Z,24.71
2018-09-17T10:21:22.314Z,24.66
2018-09-17T10:23:50.693Z,24.67
2018-09-17T10:26:19.218Z,24.65
2018-09-17T10:28:47.792Z,24.67
2018-09-17T10:31:16.309Z,24.73
2018-09-17T10:33:44.729Z,24.85
2018-09-17T10:36:13.149Z,24.87
2018-09-17T10:38:41.545Z,24.88
2018-09-17T10:41:10.014Z,24.84
2018-09-17T10:43:38.490Z,24.84
2018-09-17T10:46:07.305Z,24.90
2018-09-17T10:48:35.718Z,24.97
2018-09-17T10:51:04.189Z,25.14
2018-09-17T10:53:32.605Z,25.27
2018-09-17T10:56:01.002Z,25.30
2018-09-17T10:58:29.474Z,25.14
2018-09-17T11:00:57.860Z,25.10
2018-09-17T11:03:26.279Z,25.11
2018-09-17T11:05:54.673Z,25.05
2018-09-17T11:08:23.109Z,24.99
2018-09-17T11:10:51.497Z,25.05
2018-09-17T11:13:19.913Z,25.06
2018-09-17T11:15:49.543Z,25.11
2018-09-17T11:18:18.819Z,25.17
2018-09-17T11:20:48.006Z,25.22
2018-09-17T11:23:16.394Z,25.25
2018-09-17T11:25:44.935Z,25.26
2018-09-17T11:28:13.332Z,25.31
2018-09-17T11:30:41.925Z,25.32
2018-09-17T11:33:10.307Z,25.39
2018-09-17T11:35:38.749Z,25.42
2018-09-17T11:38:07.548Z,25.38
2018-09-17T11:40:35.978Z,25.35
2018-09-17T11:43:04.367Z,25.33
2018-09-17T11:45:32.798Z,25.32
2018-09-17T11:48:01.178Z,25.40
2018-09-17T11:50:29.877Z,25.42
2018-09-17T11:52:58.281Z,25.46
2018-09-17T11:55:26.713Z,25.50
2018-09-17T11:57:55.113Z,25.53
2018-09-17T12:00:28.737Z,25.55
2018-09-17T12:03:02.540Z,25.53
2018-09-17T12:05:37.114Z,25.45
2018-09-17T12:08:09.234Z,25.31
2018-09-17T12:10:38.238Z,25.16
2018-09-17T12:13:06.705Z,25.15
2018-09-17T12:15:39.455Z,25.21
2018-09-17T12:18:08.704Z,25.24
2018-09-17T12:20:38.101Z,25.31
2018-09-17T12:23:07.274Z,25.37
2018-09-17T12:25:35.998Z,25.43
2018-09-17T12:28:04.637Z,25.44
2018-09-17T12:30:33.066Z,25.49
2018-09-17T12:33:01.798Z,25.42
2018-09-17T12:35:30.297Z,25.36
2018-09-17T12:37:58.767Z,25.30
2018-09-17T12:40:27.841Z,25.26
2018-09-17T12:42:56.366Z,25.22
2018-09-17T12:45:25.689Z,25.13
2018-09-17T12:47:54.878Z,25.09
2018-09-17T12:50:23.706Z,25.11
2018-09-17T12:52:52.236Z,25.11
2018-09-17T12:55:20.700Z,25.11
2018-09-17T12:57:49.086Z,25.07
2018-09-17T13:00:18.377Z,25.03
2018-09-17T13:02:46.781Z,25.06
2018-09-17T13:05:15.469Z,25.18
2018-09-17T13:07:43.873Z,25.32
2018-09-17T13:10:12.281Z,25.43
2018-09-17T13:12:40.673Z,25.51
2018-09-17T13:15:09.150Z,25.66
2018-09-17T13:17:37.585Z,25.77
2018-09-17T13:20:07.225Z,25.72
2018-09-17T13:22:35.610Z,25.65
2018-09-17T13:25:04.190Z,25.67
2018-09-17T13:27:32.534Z,25.65
2018-09-17T13:30:00.941Z,25.62
2018-09-17T13:32:29.339Z,25.66
2018-09-17T13:34:57.763Z,25.86
2018-09-17T13:37:26.199Z,26.08
2018-09-17T13:39:54.798Z,26.28
2018-09-17T13:42:23.243Z,26.55
2018-09-17T13:44:51.646Z,26.71
2018-09-17T13:47:20.054Z,26.68
2018-09-17T13:49:48.487Z,26.50
2018-09-17T13:52:16.955Z,26.67
2018-09-17T13:54:45.365Z,26.89
2018-09-17T13:57:13.847Z,27.04
2018-09-17T13:59:42.334Z,27.02
2018-09-17T14:02:11.093Z,26.84
2018-09-17T14:04:39.465Z,26.62
2018-09-17T14:07:07.910Z,26.47
2018-09-17T14:09:36.297Z,26.38
2018-09-17T14:12:04.729Z,26.48
2018-09-17T14:14:33.152Z,26.42
2018-09-17T14:17:02.029Z,26.36
2018-09-17T14:19:30.474Z,26.26
2018-09-17T14:21:58.976Z,26.21
2018-09-17T14:24:27.365Z,26.17
2018-09-17T14:26:55.787Z,26.10
2018-09-17T14:29:24.205Z,26.13
2018-09-17T14:31:57.955Z,26.13
2018-09-17T14:34:26.341Z,26.24
2018-09-17T14:36:54.746Z,26.48
2018-09-17T14:39:23.204Z,27.09
2018-09-17T14:41:51.610Z,27.82
2018-09-17T14:44:20.029Z,28.45
2018-09-17T14:46:48.418Z,29.07
2018-09-17T14:49:16.842Z,29.64
2018-09-17T14:51:52.013Z,30.12
2018-09-17T14:54:20.471Z,30.62
2018-09-17T14:56:48.835Z,30.98
2018-09-17T14:59:17.310Z,31.31
2018-09-17T15:01:46.183Z,31.40
2018-09-17T15:04:14.564Z,31.62
2018-09-17T15:06:42.959Z,31.84
2018-09-17T15:09:11.518Z,32.07
2018-09-17T15:11:39.985Z,32.46
2018-09-17T15:14:09.247Z,33.34
2018-09-17T15:16:38.217Z,34.63
2018-09-17T15:19:06.817Z,35.35
2018-09-17T15:21:35.339Z,36.51
2018-09-17T15:24:03.824Z,37.01
2018-09-17T15:26:32.593Z,37.20
2018-09-17T15:29:01.086Z,37.79
2018-09-17T15:31:29.576Z,38.21
2018-09-17T15:33:58.131Z,39.70
2018-09-17T15:36:26.602Z,39.26
2018-09-17T15:38:55.094Z,39.92
2018-09-17T15:41:23.931Z,39.62
2018-09-17T15:43:52.385Z,40.35
2018-09-17T15:46:20.793Z,39.72
2018-09-17T15:48:49.176Z,39.99
2018-09-17T15:51:17.723Z,39.63
2018-09-17T15:53:46.204Z,40.46
2018-09-17T15:56:14.711Z,39.94
2018-09-17T15:58:43.041Z,40.20
2018-09-17T16:01:11.577Z,39.67
2018-09-17T16:03:39.960Z,40.39
2018-09-17T16:06:08.394Z,39.21
2018-09-17T16:08:36.790Z,38.96
2018-09-17T16:11:05.364Z,38.78
2018-09-17T16:13:33.737Z,38.55
2018-09-17T16:16:02.148Z,38.26
2018-09-17T16:18:33.723Z,37.14
2018-09-17T16:21:02.164Z,36.30
2018-09-17T16:23:30.534Z,34.54
2018-09-17T16:25:59.111Z,33.29
2018-09-17T16:28:27.508Z,31.90
2018-09-17T16:30:56.005Z,30.94
2018-09-17T16:33:24.429Z,30.19
2018-09-17T16:35:52.792Z,29.45
2018-09-17T16:38:21.212Z,28.76
2018-09-17T16:40:49.595Z,28.48
2018-09-17T16:43:18.005Z,28.09
2018-09-17T16:45:46.394Z,27.69
2018-09-17T16:48:14.858Z,27.49
2018-09-17T16:50:44.425Z,27.31
2018-09-17T16:53:12.892Z,27.12
2018-09-17T16:55:41.225Z,26.88
2018-09-17T16:58:09.877Z,26.80
2018-09-17T17:00:38.265Z,26.68
2018-09-17T17:03:06.697Z,26.46
2018-09-17T17:05:35.093Z,26.24
2018-09-17T17:08:03.506Z,26.08
2018-09-17T17:10:32.078Z,26.01
2018-09-17T17:13:00.478Z,25.95
2018-09-17T17:15:28.917Z,25.82
2018-09-17T17:17:57.592Z,25.71
2018-09-17T17:20:26.045Z,25.51
2018-09-17T17:22:54.480Z,25.39
2018-09-17T17:25:22.861Z,25.33
2018-09-17T17:27:51.391Z,25.25
2018-09-17T17:30:19.844Z,25.10
2018-09-17T17:32:48.285Z,25.05
2018-09-17T17:35:16.770Z,24.96
2018-09-17T17:37:45.166Z,24.88
2018-09-17T17:40:13.860Z,24.75
2018-09-17T17:42:42.297Z,24.67
2018-09-17T17:45:10.725Z,24.63
2018-09-17T17:47:39.119Z,24.56
2018-09-17T17:50:07.760Z,24.46
2018-09-17T17:52:36.188Z,24.37
2018-09-17T17:55:04.813Z,24.27
2018-09-17T17:57:33.230Z,24.21
2018-09-17T18:00:01.812Z,24.19
2018-09-17T18:02:30.189Z,24.21
2018-09-17T18:04:58.656Z,24.19
2018-09-17T18:07:27.033Z,24.21
2018-09-17T18:09:55.450Z,24.18
2018-09-17T18:12:23.825Z,24.20
2018-09-17T18:14:52.441Z,24.12
2018-09-17T18:17:21.929Z,24.05
2018-09-17T18:19:50.341Z,23.95
2018-09-17T18:22:19.177Z,23.91
2018-09-17T18:24:47.960Z,23.87
2018-09-17T18:27:16.438Z,23.81
2018-09-17T18:29:46.462Z,23.78
2018-09-17T18:32:14.868Z,23.77
2018-09-17T18:34:43.606Z,23.77
2018-09-17T18:37:12.110Z,23.71
2018-09-17T18:39:40.705Z,23.68
2018-09-17T18:42:09.806Z,23.62
2018-09-17T18:44:38.672Z,23.59
2018-09-17T18:47:07.113Z,23.64
2018-09-17T18:49:35.509Z,23.62
2018-09-17T18:52:04.130Z,23.50
2018-09-17T18:54:32.505Z,23.40
2018-09-17T18:57:01.092Z,23.45
2018-09-17T18:59:29.493Z,23.45
2018-09-17T19:01:58.156Z,23.42
2018-09-17T19:04:26.708Z,23.39
2018-09-17T19:06:58.107Z,23.37
2018-09-17T19:09:31.734Z,23.33
2018-09-17T19:12:00.190Z,23.34
2018-09-17T19:14:33.674Z,23.33
2018-09-17T19:17:06.654Z,23.37
2018-09-17T19:19:35.087Z,23.36
2018-09-17T19:22:09.405Z,23.33
2018-09-17T19:24:37.610Z,23.29
2018-09-17T19:27:06.314Z,23.17
2018-09-17T19:29:34.731Z,23.08
2018-09-17T19:32:03.138Z,22.95
2018-09-17T19:34:31.802Z,22.90
2018-09-17T19:37:05.357Z,22.85
2018-09-17T19:39:39.247Z,22.81
2018-09-17T19:42:07.957Z,22.76
2018-09-17T19:44:36.353Z,22.77
2018-09-17T19:47:04.738Z,22.82
2018-09-17T19:49:33.156Z,22.85
2018-09-17T19:52:07.326Z,22.88
2018-09-17T19:54:35.742Z,22.87
2018-09-17T19:57:08.354Z,22.81
2018-09-17T19:59:42.045Z,22.73
2018-09-17T20:02:10.479Z,22.65
2018-09-17T20:04:44.029Z,22.64
2018-09-17T20:07:12.571Z,22.67
2018-09-17T20:09:40.994Z,22.70
2018-09-17T20:12:09.369Z,22.77
2018-09-17T20:14:37.798Z,22.65
2018-09-17T20:17:06.177Z,22.57
2018-09-17T20:19:34.630Z,22.49
2018-09-17T20:22:03.784Z,22.46
2018-09-17T20:24:32.185Z,22.48
2018-09-17T20:27:00.661Z,22.44
2018-09-17T20:29:29.070Z,22.42
2018-09-17T20:31:57.479Z,22.32
2018-09-17T20:34:25.922Z,22.26
2018-09-17T20:36:54.297Z,22.21
2018-09-17T20:39:22.993Z,22.12
2018-09-17T20:41:51.362Z,22.07
2018-09-17T20:44:20.306Z,22.06
2018-09-17T20:46:48.756Z,22.04
2018-09-17T20:49:17.332Z,21.99
2018-09-17T20:51:46.121Z,21.97
2018-09-17T20:54:14.497Z,21.95
2018-09-17T20:56:42.941Z,21.95
2018-09-17T20:59:11.318Z,21.94
2018-09-17T21:01:39.821Z,21.95
2018-09-17T21:04:08.285Z,21.91
2018-09-17T21:06:38.661Z,21.90
2018-09-17T21:09:09.529Z,21.84
2018-09-17T21:11:37.949Z,21.82
2018-09-17T21:14:06.889Z,21.81
2018-09-17T21:16:35.730Z,21.82
2018-09-17T21:19:04.226Z,21.89
2018-09-17T21:21:32.642Z,21.90
2018-09-17T21:24:01.133Z,21.88
2018-09-17T21:26:29.599Z,21.83
2018-09-17T21:28:57.974Z,21.81
2018-09-17T21:31:26.365Z,21.73
2018-09-17T21:33:54.845Z,21.66
2018-09-17T21:36:23.224Z,21.59
2018-09-17T21:38:51.648Z,21.59
2018-09-17T21:41:20.064Z,21.52
2018-09-17T21:43:48.493Z,21.57
2018-09-17T21:46:16.878Z,21.57
2018-09-17T21:48:45.299Z,21.61
2018-09-17T21:51:13.716Z,21.58
2018-09-17T21:53:42.133Z,21.50
2018-09-17T21:56:10.549Z,21.44
2018-09-17T21:58:38.971Z,21.39
2018-09-17T22:01:07.430Z,21.36
2018-09-17T22:03:36.229Z,21.41
2018-09-17T22:06:04.648Z,21.38
2018-09-17T22:08:33.024Z,21.34
2018-09-17T22:11:01.477Z,21.32
2018-09-17T22:13:29.921Z,21.29
2018-09-17T22:15:58.346Z,21.27
2018-09-17T22:18:26.857Z,21.27
2018-09-17T22:20:55.277Z,21.24
2018-09-17T22:23:23.651Z,21.28
2018-09-17T22:25:52.066Z,21.36
2018-09-17T22:28:20.453Z,21.35
2018-09-17T22:30:48.881Z,21.30
2018-09-17T22:33:17.285Z,21.31
2018-09-17T22:35:45.701Z,21.31
2018-09-17T22:38:14.129Z,21.31
2018-09-17T22:40:42.545Z,21.40
2018-09-17T22:43:10.941Z,21.49
2018-09-17T22:45:39.357Z,21.49
2018-09-17T22:48:07.757Z,21.38
2018-09-17T22:50:36.161Z,21.32
2018-09-17T22:53:04.666Z,21.30
2018-09-17T22:55:33.076Z,21.32
2018-09-17T22:58:01.829Z,21.36
2018-09-17T23:00:30.286Z,21.43
2018-09-17T23:02:58.665Z,21.40
2018-09-17T23:05:27.085Z,21.36
2018-09-17T23:07:55.461Z,21.39
2018-09-17T23:10:23.841Z,21.40
2018-09-17T23:12:52.245Z,21.41
2018-09-17T23:15:20.629Z,21.43
2018-09-17T23:17:49.030Z,21.31
2018-09-17T23:20:17.436Z,21.23
2018-09-17T23:22:45.841Z,21.10
2018-09-17T23:25:14.233Z,21.12
2018-09-17T23:27:42.640Z,21.17
2018-09-17T23:30:11.021Z,21.08
2018-09-17T23:32:39.465Z,21.16
2018-09-17T23:35:07.891Z,21.18
2018-09-17T23:37:36.297Z,21.17
2018-09-17T23:40:04.725Z,21.19
2018-09-17T23:42:33.149Z,21.15
2018-09-17T23:45:01.541Z,21.14
2018-09-17T23:47:29.922Z,21.16
2018-09-17T23:49:58.333Z,21.12
2018-09-17T23:52:26.708Z,20.99
2018-09-17T23:54:55.128Z,20.89
2018-09-17T23:57:23.525Z,20.82
2018-09-17T23:59:51.944Z,20.80
